createdAt,value
2022-07-26T00:04:38.969Z,974.93
2022-07-26T00:10:10.656Z,975.39
2022-07-26T00:15:42.411Z,975.53
2022-07-26T00:21:14.213Z,975.56
2022-07-26T00:26:45.857Z,975.68
2022-07-26T00:32:22.064Z,975.68
2022-07-26T00:37:53.706Z,975.56
2022-07-26T00:43:25.568Z,975.74
2022-07-26T00:48:57.310Z,976.15
2022-07-26T00:54:28.886Z,976.34
2022-07-26T01:00:00.622Z,974.78
2022-07-26T01:05:32.491Z,974.91
2022-07-26T01:11:04.180Z,975.58
2022-07-26T01:16:35.887Z,976.01
2022-07-26T01:22:15.205Z,976.15
2022-07-26T01:27:39.608Z,976.73
2022-07-26T01:33:15.343Z,976.84
2022-07-26T01:38:46.991Z,976.82
2022-07-26T01:44:18.802Z,976.89
2022-07-26T01:49:50.486Z,977.03
2022-07-26T01:55:22.243Z,977.13
2022-07-26T02:00:53.950Z,977.46
2022-07-26T02:06:26.232Z,977.55
2022-07-26T02:11:57.430Z,977.51
2022-07-26T02:17:29.001Z,977.43
2022-07-26T02:23:00.935Z,977.31
2022-07-26T02:28:32.562Z,977.61
2022-07-26T02:34:10.421Z,977.43
2022-07-26T02:39:40.382Z,977.53
2022-07-26T02:45:12.139Z,977.55
2022-07-26T02:50:43.903Z,977.55
2022-07-26T02:56:15.551Z,977.53
2022-07-26T03:01:47.416Z,977.64
2022-07-26T03:07:19.019Z,977.77
2022-07-26T03:12:51.283Z,977.77
2022-07-26T03:18:22.479Z,977.6
2022-07-26T03:23:54.161Z,977.72
2022-07-26T03:29:26.027Z,977.44
2022-07-26T03:35:01.967Z,977.39
2022-07-26T03:40:33.603Z,977.52
2022-07-26T03:46:05.676Z,977.7
2022-07-26T03:51:37.079Z,977.56
2022-07-26T03:57:08.888Z,977.56
2022-07-26T04:02:40.723Z,977.58
2022-07-26T04:08:12.299Z,977.72
2022-07-26T04:13:44.031Z,977.4
2022-07-26T04:19:15.965Z,977.74
2022-07-26T04:24:47.499Z,977.87
2022-07-26T04:30:19.221Z,977.68
2022-07-26T04:35:55.304Z,977.8
2022-07-26T04:41:27.016Z,978.09
2022-07-26T04:46:58.807Z,978.1
2022-07-26T04:52:30.386Z,978.32
2022-07-26T04:58:02.228Z,978.22
2022-07-26T05:03:33.894Z,978.51
2022-07-26T05:09:05.654Z,978.73
2022-07-26T05:14:37.654Z,978.87
2022-07-26T05:20:10.845Z,978.74
2022-07-26T05:25:42.549Z,979.0
2022-07-26T05:31:14.487Z,978.64
2022-07-26T05:36:50.434Z,978.72
2022-07-26T05:42:22.026Z,978.66
2022-07-26T05:47:53.909Z,978.53
2022-07-26T05:53:25.602Z,979.18
2022-07-26T05:58:57.264Z,979.42
2022-07-26T06:04:29.290Z,979.04
2022-07-26T06:10:00.850Z,978.97
2022-07-26T06:15:32.416Z,979.63
2022-07-26T06:21:04.210Z,978.78
2022-07-26T06:26:35.980Z,979.23
2022-07-26T06:32:08.057Z,979.24
2022-07-26T06:37:43.835Z,979.18
2022-07-26T06:43:15.434Z,979.37
2022-07-26T06:48:57.359Z,979.54
2022-07-26T06:54:19.064Z,979.31
2022-07-26T06:59:50.759Z,979.72
2022-07-26T07:05:22.861Z,979.2
2022-07-26T07:10:54.874Z,979.51
2022-07-26T07:16:26.106Z,979.35
2022-07-26T07:21:58.282Z,979.22
2022-07-26T07:27:30.194Z,979.12
2022-07-26T07:33:05.046Z,979.51
2022-07-26T07:38:43.161Z,979.28
2022-07-26T07:44:10.301Z,979.3
2022-07-26T07:49:40.690Z,979.06
2022-07-26T07:55:46.929Z,979.04
2022-07-26T08:00:44.293Z,979.33
2022-07-26T08:06:15.937Z,979.14
2022-07-26T08:11:51.773Z,978.79
2022-07-26T08:17:24.459Z,979.01
2022-07-26T08:22:51.025Z,979.21
2022-07-26T08:28:48.782Z,978.47
2022-07-26T08:33:57.317Z,978.51
2022-07-26T08:39:32.629Z,978.84
2022-07-26T08:45:04.277Z,978.87
2022-07-26T08:50:35.969Z,979.05
2022-07-26T08:56:08.530Z,979.06
2022-07-26T09:01:39.714Z,978.51
2022-07-26T09:07:11.313Z,979.4
2022-07-26T09:12:43.075Z,979.41
2022-07-26T09:18:14.821Z,978.61
2022-07-26T09:23:46.510Z,978.72
2022-07-26T09:29:18.260Z,978.84
2022-07-26T09:34:59.085Z,978.85
2022-07-26T09:40:26.109Z,978.62
2022-07-26T09:46:01.340Z,979.48
2022-07-26T09:51:34.866Z,979.02
2022-07-26T09:57:01.261Z,978.51
2022-07-26T10:02:33.441Z,979.15
2022-07-26T10:08:04.833Z,978.87
2022-07-26T10:13:37.050Z,978.89
2022-07-26T10:19:09.440Z,979.24
2022-07-26T10:24:40.154Z,978.66
2022-07-26T10:30:11.973Z,978.95
2022-07-26T10:35:43.852Z,979.32
2022-07-26T10:41:21.753Z,979.13
2022-07-26T10:46:53.729Z,979.4
2022-07-26T10:52:25.240Z,978.75
2022-07-26T10:57:56.942Z,979.43
2022-07-26T11:03:28.825Z,979.32
2022-07-26T11:09:01.042Z,979.55
2022-07-26T11:14:32.282Z,979.22
2022-07-26T11:20:04.086Z,979.45
2022-07-26T11:25:38.347Z,978.8
2022-07-26T11:31:08.479Z,978.99
2022-07-26T11:36:39.437Z,978.69
2022-07-26T11:42:15.707Z,978.31
2022-07-26T11:47:47.333Z,978.89
2022-07-26T11:53:19.058Z,978.74
2022-07-26T11:58:51.107Z,978.83
2022-07-26T12:04:22.934Z,978.71
2022-07-26T12:09:54.221Z,977.65
2022-07-26T12:15:27.781Z,978.02
2022-07-26T12:21:07.347Z,978.44
2022-07-26T12:26:29.598Z,976.7
2022-07-26T12:32:01.340Z,977.55
2022-07-26T12:37:41.335Z,978.39
2022-07-26T12:43:09.205Z,977.39
2022-07-26T12:48:40.958Z,978.29
2022-07-26T12:54:14.398Z,978.28
2022-07-26T12:59:45.910Z,977.28
2022-07-26T13:05:16.571Z,976.55
2022-07-26T13:10:47.913Z,977.09
2022-07-26T13:16:20.232Z,977.05
2022-07-26T13:21:53.772Z,977.65
2022-07-26T13:27:23.127Z,977.83
2022-07-26T13:32:54.843Z,976.35
2022-07-26T13:38:26.641Z,977.38
2022-07-26T13:44:02.748Z,976.96
2022-07-26T13:49:34.505Z,977.05
2022-07-26T13:55:07.459Z,976.98
2022-07-26T14:00:37.949Z,976.19
2022-07-26T14:06:09.565Z,975.6
2022-07-26T14:11:41.312Z,976.69
2022-07-26T14:17:13.084Z,976.36
2022-07-26T14:22:44.723Z,977.11
2022-07-26T14:28:16.420Z,977.24
2022-07-26T14:33:48.170Z,976.24
2022-07-26T14:39:19.923Z,976.77
2022-07-26T14:44:56.215Z,975.84
2022-07-26T14:50:27.650Z,976.32
2022-07-26T14:55:59.466Z,976.69
2022-07-26T15:01:31.357Z,975.84
2022-07-26T15:07:02.923Z,975.95
2022-07-26T15:12:34.617Z,976.39
2022-07-26T15:18:06.343Z,975.92
2022-07-26T15:23:38.088Z,975.68
2022-07-26T15:29:09.822Z,975.79
2022-07-26T15:34:41.647Z,975.47
2022-07-26T15:40:13.273Z,975.45
2022-07-26T15:45:51.311Z,973.89
2022-07-26T15:51:21.108Z,974.16
2022-07-26T15:56:52.897Z,975.34
2022-07-26T16:02:24.649Z,975.62
2022-07-26T16:07:56.263Z,974.67
2022-07-26T16:13:28.022Z,975.11
2022-07-26T16:18:59.615Z,974.73
2022-07-26T16:24:31.469Z,974.66
2022-07-26T16:30:03.136Z,975.25
2022-07-26T16:35:34.860Z,974.4
2022-07-26T16:41:06.551Z,975.0
2022-07-26T16:46:45.525Z,974.59
2022-07-26T16:52:16.474Z,974.54
2022-07-26T16:57:48.143Z,974.19
2022-07-26T17:03:19.869Z,974.17
2022-07-26T17:08:51.731Z,974.35
2022-07-26T17:14:23.334Z,975.01
2022-07-26T17:19:54.966Z,974.12
2022-07-26T17:25:26.901Z,973.99
2022-07-26T17:30:58.475Z,974.29
2022-07-26T17:36:30.215Z,973.97
2022-07-26T17:42:01.902Z,974.12
2022-07-26T17:47:40.024Z,974.36
2022-07-26T17:53:11.755Z,974.07
2022-07-26T17:58:43.602Z,974.65
2022-07-26T18:04:15.504Z,974.21
2022-07-26T18:09:47.063Z,973.89
2022-07-26T18:15:18.899Z,973.83
2022-07-26T18:20:50.730Z,974.29
2022-07-26T18:26:22.258Z,974.28
2022-07-26T18:31:54.197Z,974.51
2022-07-26T18:37:25.601Z,974.32
2022-07-26T18:42:57.301Z,974.16
2022-07-26T18:48:33.479Z,974.04
2022-07-26T18:54:05.210Z,973.95
2022-07-26T18:59:39.907Z,974.0
2022-07-26T19:05:08.803Z,974.04
2022-07-26T19:10:40.461Z,974.07
2022-07-26T19:16:12.515Z,974.16
2022-07-26T19:21:43.925Z,974.19
2022-07-26T19:27:15.687Z,974.33
2022-07-26T19:32:47.349Z,974.55
2022-07-26T19:38:19.071Z,974.68
2022-07-26T19:43:50.802Z,974.61
2022-07-26T19:49:27.194Z,974.62
2022-07-26T19:54:58.667Z,974.62
2022-07-26T20:00:30.325Z,974.67
2022-07-26T20:06:02.109Z,974.72
2022-07-26T20:11:33.834Z,974.71
2022-07-26T20:17:13.955Z,974.7
2022-07-26T20:22:37.713Z,974.63
2022-07-26T20:28:08.973Z,974.85
2022-07-26T20:33:40.847Z,974.73
2022-07-26T20:39:13.702Z,974.77
2022-07-26T20:44:44.326Z,974.95
2022-07-26T20:50:20.306Z,975.12
2022-07-26T20:55:52.085Z,974.86
2022-07-26T21:01:24.019Z,974.81
2022-07-26T21:06:55.860Z,974.65
2022-07-26T21:12:27.241Z,974.82
2022-07-26T21:17:59.049Z,975.0
2022-07-26T21:23:32.774Z,974.95
2022-07-26T21:29:02.606Z,975.09
2022-07-26T21:34:34.415Z,975.15
2022-07-26T21:40:05.886Z,974.99
2022-07-26T21:45:37.957Z,975.13
2022-07-26T21:51:13.786Z,975.0
2022-07-26T21:56:45.478Z,974.99
2022-07-26T22:02:22.616Z,974.82
2022-07-26T22:07:48.891Z,974.71
2022-07-26T22:13:20.668Z,974.74
2022-07-26T22:18:52.553Z,974.74
2022-07-26T22:24:24.303Z,974.72
2022-07-26T22:29:58.996Z,974.81
2022-07-26T22:35:37.252Z,974.62
2022-07-26T22:41:02.175Z,974.61
2022-07-26T22:46:34.857Z,974.92
2022-07-26T22:52:10.912Z,974.95
2022-07-26T22:57:42.520Z,974.84
2022-07-26T23:03:21.604Z,974.73
2022-07-26T23:08:48.572Z,974.76
2022-07-26T23:14:17.761Z,975.03
2022-07-26T23:19:49.352Z,974.82
2022-07-26T23:25:21.487Z,975.22
2022-07-26T23:30:52.867Z,975.15
2022-07-26T23:36:24.575Z,975.05
2022-07-26T23:41:56.323Z,975.3
2022-07-26T23:47:28.003Z,975.3
2022-07-26T23:53:04.658Z,975.96
2022-07-26T23:58:35.790Z,975.15
